Time;durP1;ratioP1;P1;durP2;ratioP2;P2;SDS_P1;SDS_P2;PMS_P1;PMS_P2;Temp;Humidity;BMP_temperature;BMP_pressure;BME280_temperature;BME280_humidity;BME280_pressure;Samples;Min_cycle;Max_cycle;Signal;HPM_P1;HPM_P2
2023/09/15 00:00:25;;;;;;;9.93;4.43;;;;;;;;;;5081270;27;20048;-66
2023/09/15 00:02:56;;;;;;;7.30;4.05;;;;;;;;;;5073134;28;20086;-66
2023/09/15 00:05:26;;;;;;;10.82;4.90;;;;;;;;;;5074381;28;20041;-66
2023/09/15 00:07:55;;;;;;;9.07;4.70;;;;;;;;;;5080587;28;20079;-66
2023/09/15 00:10:24;;;;;;;9.93;3.95;;;;;;;;;;5087904;28;20075;-66
2023/09/15 00:12:54;;;;;;;9.40;4.38;;;;;;;;;;5087048;28;20046;-66
2023/09/15 00:15:22;;;;;;;11.80;4.43;;;;;;;;;;5080766;28;20048;-66
2023/09/15 00:17:51;;;;;;;7.53;4.57;;;;;;;;;;5074815;28;20148;-66
2023/09/15 00:20:20;;;;;;;10.27;4.28;;;;;;;;;;5079175;28;20037;-64
2023/09/15 00:22:49;;;;;;;8.30;4.32;;;;;;;;;;5079494;28;20047;-65
2023/09/15 00:25:19;;;;;;;6.97;4.15;;;;;;;;;;5083015;28;20071;-66
2023/09/15 00:27:48;;;;;;;8.88;4.13;;;;;;;;;;5090301;28;20550;-66
2023/09/15 00:30:19;;;;;;;7.32;3.83;;;;;;;;;;5076201;28;20405;-66
2023/09/15 00:32:48;;;;;;;11.63;4.28;;;;;;;;;;5084418;28;20382;-66
2023/09/15 00:35:18;;;;;;;7.60;4.10;;;;;;;;;;5077684;28;20040;-66
2023/09/15 00:37:47;;;;;;;9.90;4.32;;;;;;;;;;5082739;28;20052;-66
2023/09/15 00:40:15;;;;;;;9.18;4.28;;;;;;;;;;5082380;28;20525;-65
2023/09/15 00:42:45;;;;;;;6.60;3.90;;;;;;;;;;5085465;28;20043;-66
2023/09/15 00:45:14;;;;;;;7.38;4.47;;;;;;;;;;5081416;28;20496;-66
2023/09/15 00:47:46;;;;;;;7.45;4.45;;;;;;;;;;5086339;28;20044;-66
2023/09/15 00:50:15;;;;;;;7.10;4.18;;;;;;;;;;5089853;28;20491;-66
2023/09/15 00:52:45;;;;;;;7.60;4.18;;;;;;;;;;5095951;28;20043;-66
2023/09/15 00:55:14;;;;;;;7.05;4.22;;;;;;;;;;5093665;28;20050;-66
2023/09/15 00:57:42;;;;;;;8.40;4.57;;;;;;;;;;5093118;28;20052;-66
2023/09/15 01:00:13;;;;;;;8.82;4.65;;;;;;;;;;5083790;28;20050;-66
2023/09/15 01:02:42;;;;;;;10.68;4.32;;;;;;;;;;5092127;28;20531;-66
2023/09/15 01:05:16;;;;;;;7.82;4.30;;;;;;;;;;5078487;28;20281;-66
2023/09/15 01:07:45;;;;;;;8.55;4.03;;;;;;;;;;5090461;28;20548;-66
2023/09/15 01:10:14;;;;;;;8.15;4.47;;;;;;;;;;5088726;28;20071;-66
2023/09/15 01:12:43;;;;;;;7.57;4.50;;;;;;;;;;5091133;28;20420;-63
2023/09/15 01:15:11;;;;;;;6.18;4.18;;;;;;;;;;5074125;28;20044;-66
2023/09/15 01:17:43;;;;;;;8.00;4.38;;;;;;;;;;5070668;28;20132;-66
2023/09/15 01:20:17;;;;;;;12.15;4.70;;;;;;;;;;5085211;28;20054;-66
2023/09/15 01:23:09;;;;;;;9.73;4.32;;;;;;;;;;5079100;28;20433;-65
2023/09/15 01:25:44;;;;;;;7.97;4.30;;;;;;;;;;4999121;28;20529;-66
2023/09/15 01:28:21;;;;;;;6.28;3.97;;;;;;;;;;5081706;28;20139;-66
2023/09/15 01:30:52;;;;;;;6.80;4.10;;;;;;;;;;5083534;28;20051;-66
2023/09/15 01:33:21;;;;;;;5.88;3.70;;;;;;;;;;5085693;28;20087;-66
2023/09/15 01:35:49;;;;;;;7.75;4.47;;;;;;;;;;5087057;28;20043;-66
2023/09/15 01:38:18;;;;;;;8.88;4.30;;;;;;;;;;5078679;28;20053;-66
2023/09/15 01:40:46;;;;;;;7.00;4.03;;;;;;;;;;5074489;28;20060;-66
2023/09/15 01:43:15;;;;;;;7.65;4.38;;;;;;;;;;5078512;28;20101;-66
2023/09/15 01:45:43;;;;;;;8.57;4.05;;;;;;;;;;5073390;28;20487;-66
2023/09/15 01:48:14;;;;;;;12.40;4.35;;;;;;;;;;5083505;28;20106;-66
2023/09/15 01:50:43;;;;;;;10.35;4.32;;;;;;;;;;5088427;28;20110;-66
2023/09/15 01:53:11;;;;;;;9.57;4.55;;;;;;;;;;5075931;28;20090;-66
2023/09/15 01:55:40;;;;;;;10.13;4.13;;;;;;;;;;5077771;28;20052;-66
2023/09/15 01:58:09;;;;;;;10.77;4.28;;;;;;;;;;5074605;28;20229;-66
2023/09/15 02:00:37;;;;;;;11.85;5.57;;;;;;;;;;5079763;28;20051;-66
2023/09/15 02:03:06;;;;;;;8.60;4.63;;;;;;;;;;5088990;28;20052;-66
2023/09/15 02:05:36;;;;;;;6.63;4.07;;;;;;;;;;5085075;28;20048;-66
2023/09/15 02:08:05;;;;;;;11.52;4.70;;;;;;;;;;5081294;28;20063;-66
2023/09/15 02:10:33;;;;;;;8.82;4.82;;;;;;;;;;5076810;28;20625;-66
2023/09/15 02:13:02;;;;;;;11.18;4.53;;;;;;;;;;5095563;28;20080;-66
2023/09/15 02:15:30;;;;;;;10.18;5.18;;;;;;;;;;5077254;28;20052;-66
2023/09/15 02:17:59;;;;;;;11.80;3.97;;;;;;;;;;5069192;28;20135;-66
2023/09/15 02:20:28;;;;;;;12.63;4.97;;;;;;;;;;5080397;28;20053;-66
2023/09/15 02:23:03;;;;;;;9.77;5.05;;;;;;;;;;5075508;28;20472;-66
2023/09/15 02:25:32;;;;;;;10.82;4.43;;;;;;;;;;5082895;28;20511;-66
2023/09/15 02:28:02;;;;;;;10.00;4.32;;;;;;;;;;5085570;28;20040;-66
2023/09/15 02:30:30;;;;;;;9.70;4.57;;;;;;;;;;5074392;28;20052;-66
2023/09/15 02:32:59;;;;;;;12.23;4.90;;;;;;;;;;5078572;28;20040;-66
2023/09/15 02:35:27;;;;;;;8.32;4.57;;;;;;;;;;5086587;28;20052;-66
2023/09/15 02:37:56;;;;;;;9.77;5.00;;;;;;;;;;5089783;28;20078;-66
2023/09/15 02:40:26;;;;;;;8.77;4.88;;;;;;;;;;5090328;28;20068;-66
2023/09/15 02:42:54;;;;;;;7.30;4.30;;;;;;;;;;5097806;28;20055;-66
2023/09/15 02:45:22;;;;;;;9.52;4.63;;;;;;;;;;5080906;28;20524;-66
2023/09/15 02:47:51;;;;;;;14.40;5.13;;;;;;;;;;5095602;28;20100;-66
2023/09/15 02:50:19;;;;;;;12.48;5.18;;;;;;;;;;5084286;28;20568;-66
2023/09/15 02:52:48;;;;;;;10.13;4.85;;;;;;;;;;5080403;28;20052;-66
2023/09/15 02:55:17;;;;;;;10.18;4.70;;;;;;;;;;5084001;28;20106;-66
2023/09/15 02:57:46;;;;;;;9.02;4.78;;;;;;;;;;5078247;28;20488;-66
2023/09/15 03:00:16;;;;;;;8.38;4.50;;;;;;;;;;5089335;27;20048;-66
2023/09/15 03:02:44;;;;;;;8.63;4.93;;;;;;;;;;5086216;28;20063;-66
2023/09/15 03:05:13;;;;;;;8.00;4.55;;;;;;;;;;5097287;28;20075;-66
2023/09/15 03:07:42;;;;;;;11.45;4.72;;;;;;;;;;5083088;28;20061;-66
2023/09/15 03:10:11;;;;;;;8.68;4.57;;;;;;;;;;5088293;28;20048;-66
2023/09/15 03:12:39;;;;;;;12.13;4.50;;;;;;;;;;5084579;28;20128;-66
2023/09/15 03:15:10;;;;;;;6.78;4.22;;;;;;;;;;5083864;28;20044;-66
2023/09/15 03:17:38;;;;;;;8.95;4.20;;;;;;;;;;5093071;28;20516;-66
2023/09/15 03:20:13;;;;;;;10.73;4.72;;;;;;;;;;5089276;28;20050;-66
2023/09/15 03:22:41;;;;;;;9.77;4.20;;;;;;;;;;5088955;28;20048;-66
2023/09/15 03:25:10;;;;;;;8.60;4.32;;;;;;;;;;5086061;28;20043;-66
2023/09/15 03:27:39;;;;;;;8.55;4.45;;;;;;;;;;5084442;28;20101;-66
2023/09/15 03:30:08;;;;;;;10.70;4.38;;;;;;;;;;5077549;28;20055;-66
2023/09/15 03:32:38;;;;;;;7.50;4.28;;;;;;;;;;5076956;28;20049;-66
2023/09/15 03:35:07;;;;;;;7.63;4.38;;;;;;;;;;5077726;28;20048;-66
2023/09/15 03:37:36;;;;;;;8.20;4.80;;;;;;;;;;5099348;28;20104;-66
2023/09/15 03:40:06;;;;;;;8.85;4.72;;;;;;;;;;5072168;28;20049;-66
2023/09/15 03:42:35;;;;;;;12.55;4.45;;;;;;;;;;5098520;28;20045;-66
2023/09/15 03:45:04;;;;;;;11.50;5.53;;;;;;;;;;5081684;28;20044;-65
2023/09/15 03:47:32;;;;;;;9.02;4.82;;;;;;;;;;5094208;28;20035;-66
2023/09/15 03:50:03;;;;;;;14.38;5.28;;;;;;;;;;5082548;28;20459;-66
2023/09/15 03:52:32;;;;;;;13.63;5.88;;;;;;;;;;5082828;28;20048;-65
2023/09/15 03:55:02;;;;;;;9.23;5.18;;;;;;;;;;5082295;28;20092;-66
2023/09/15 03:57:31;;;;;;;7.90;4.53;;;;;;;;;;5096626;28;20044;-66
2023/09/15 03:59:59;;;;;;;10.77;5.45;;;;;;;;;;5078615;28;20052;-66
2023/09/15 04:02:29;;;;;;;14.23;5.78;;;;;;;;;;5088495;28;20492;-66
2023/09/15 04:04:58;;;;;;;12.13;5.85;;;;;;;;;;5084634;28;20044;-65
2023/09/15 04:07:27;;;;;;;13.88;6.82;;;;;;;;;;5089506;28;20048;-65
2023/09/15 04:09:57;;;;;;;13.98;6.85;;;;;;;;;;5071523;28;20052;-66
2023/09/15 04:12:26;;;;;;;21.95;9.52;;;;;;;;;;5082193;28;20055;-66
2023/09/15 04:14:54;;;;;;;17.05;8.77;;;;;;;;;;5081188;28;20052;-65
2023/09/15 04:17:22;;;;;;;19.83;9.30;;;;;;;;;;5103045;28;20484;-65
2023/09/15 04:19:51;;;;;;;24.50;9.63;;;;;;;;;;5078651;28;20146;-68
2023/09/15 04:22:19;;;;;;;22.73;9.60;;;;;;;;;;5081810;28;20493;-65
2023/09/15 04:24:49;;;;;;;22.40;10.02;;;;;;;;;;5080616;28;20056;-67
2023/09/15 04:27:18;;;;;;;22.45;10.77;;;;;;;;;;5100474;28;20039;-67
2023/09/15 04:29:52;;;;;;;23.48;11.13;;;;;;;;;;5101015;28;20044;-68
2023/09/15 04:32:21;;;;;;;;;;;;;;;;;;5081778;28;20482;-67
2023/09/15 04:34:50;;;;;;;22.45;10.88;;;;;;;;;;5071459;28;19927;-65
2023/09/15 04:37:19;;;;;;;22.77;10.82;;;;;;;;;;5079667;28;20052;-66
2023/09/15 04:39:50;;;;;;;24.73;11.48;;;;;;;;;;5071411;28;20052;-66
2023/09/15 04:42:18;;;;;;;22.33;10.57;;;;;;;;;;5097121;28;20043;-66
2023/09/15 04:44:47;;;;;;;25.98;11.15;;;;;;;;;;5090299;28;20048;-66
2023/09/15 04:47:19;;;;;;;26.15;11.77;;;;;;;;;;5094444;28;20105;-65
2023/09/15 04:49:47;;;;;;;20.13;9.13;;;;;;;;;;5082789;28;20044;-65
2023/09/15 04:52:16;;;;;;;19.23;9.25;;;;;;;;;;5075698;28;20530;-66
2023/09/15 04:54:44;;;;;;;20.83;9.55;;;;;;;;;;5081285;28;20076;-65
2023/09/15 04:57:14;;;;;;;22.50;10.07;;;;;;;;;;5078510;28;20455;-65
2023/09/15 04:59:43;;;;;;;24.13;9.85;;;;;;;;;;5079505;28;20489;-66
2023/09/15 05:02:13;;;;;;;18.75;9.10;;;;;;;;;;5067390;28;20061;-66
2023/09/15 05:04:41;;;;;;;21.45;9.73;;;;;;;;;;5073424;28;20104;-66
2023/09/15 05:07:10;;;;;;;18.92;8.48;;;;;;;;;;5072973;28;20520;-65
2023/09/15 05:09:38;;;;;;;21.75;8.98;;;;;;;;;;5075496;28;20912;-65
2023/09/15 05:12:07;;;;;;;22.55;10.25;;;;;;;;;;5078315;28;20056;-65
2023/09/15 05:14:36;;;;;;;21.65;9.73;;;;;;;;;;5078949;28;20097;-66
2023/09/15 05:17:05;;;;;;;27.10;11.07;;;;;;;;;;5078452;28;20132;-66
2023/09/15 05:19:34;;;;;;;22.85;10.48;;;;;;;;;;5074681;28;20057;-66
2023/09/15 05:22:02;;;;;;;26.30;11.23;;;;;;;;;;5089229;28;20039;-64
2023/09/15 05:24:31;;;;;;;27.08;10.85;;;;;;;;;;5083972;28;20040;-66
2023/09/15 05:26:59;;;;;;;20.90;9.35;;;;;;;;;;5074668;28;20052;-66
2023/09/15 05:29:27;;;;;;;26.73;11.98;;;;;;;;;;5082746;28;20052;-66
2023/09/15 05:31:57;;;;;;;24.88;10.88;;;;;;;;;;5088712;28;20053;-66
2023/09/15 05:34:26;;;;;;;25.30;11.23;;;;;;;;;;5095999;28;20035;-66
2023/09/15 05:36:54;;;;;;;21.77;10.35;;;;;;;;;;5093610;28;20055;-66
2023/09/15 05:39:23;;;;;;;24.15;9.85;;;;;;;;;;5107886;28;20043;-66
2023/09/15 05:41:51;;;;;;;25.48;10.45;;;;;;;;;;5097207;28;20052;-66
2023/09/15 05:44:19;;;;;;;26.13;11.23;;;;;;;;;;5103182;28;20136;-67
2023/09/15 05:46:48;;;;;;;23.92;10.48;;;;;;;;;;5071477;28;20084;-66
2023/09/15 05:49:18;;;;;;;30.90;11.70;;;;;;;;;;5091768;28;20127;-66
2023/09/15 05:51:47;;;;;;;19.20;9.60;;;;;;;;;;5069306;28;20393;-67
2023/09/15 05:54:15;;;;;;;24.33;10.80;;;;;;;;;;5085536;28;20040;-67
2023/09/15 05:56:43;;;;;;;28.05;11.40;;;;;;;;;;5072440;28;20106;-67
2023/09/15 05:59:12;;;;;;;27.88;10.23;;;;;;;;;;5076642;28;20085;-67
2023/09/15 06:01:46;;;;;;;22.60;9.52;;;;;;;;;;5091503;28;20097;-67
2023/09/15 06:04:15;;;;;;;23.58;10.55;;;;;;;;;;5095315;28;20055;-67
2023/09/15 06:06:45;;;;;;;23.48;10.77;;;;;;;;;;5099477;28;20126;-67
2023/09/15 06:09:13;;;;;;;22.83;9.57;;;;;;;;;;5089308;28;20079;-67
2023/09/15 06:11:42;;;;;;;24.80;11.18;;;;;;;;;;5099644;28;20040;-67
2023/09/15 06:14:10;;;;;;;24.17;9.70;;;;;;;;;;5087066;28;20082;-67
2023/09/15 06:16:39;;;;;;;23.35;10.43;;;;;;;;;;5082322;28;20093;-68
2023/09/15 06:19:08;;;;;;;19.25;9.45;;;;;;;;;;5091734;28;20079;-67
2023/09/15 06:21:37;;;;;;;20.52;9.48;;;;;;;;;;5095278;28;20059;-68
2023/09/15 06:24:07;;;;;;;22.27;9.27;;;;;;;;;;5093390;28;20088;-67
2023/09/15 06:26:36;;;;;;;22.48;9.05;;;;;;;;;;5096977;28;20126;-67
2023/09/15 06:29:05;;;;;;;22.05;9.80;;;;;;;;;;5100004;28;20480;-67
2023/09/15 06:31:34;;;;;;;20.75;9.38;;;;;;;;;;5092074;28;20101;-66
2023/09/15 06:34:02;;;;;;;21.02;8.82;;;;;;;;;;5086496;28;20404;-67
2023/09/15 06:36:31;;;;;;;23.52;9.23;;;;;;;;;;5089137;28;20055;-67
2023/09/15 06:38:59;;;;;;;18.45;8.93;;;;;;;;;;5095049;28;20052;-67
2023/09/15 06:41:29;;;;;;;18.67;8.77;;;;;;;;;;5080709;28;20057;-67
2023/09/15 06:43:58;;;;;;;19.15;7.93;;;;;;;;;;5076651;28;20508;-67
2023/09/15 06:46:26;;;;;;;18.98;8.55;;;;;;;;;;5089986;28;20055;-67
2023/09/15 06:48:55;;;;;;;20.00;9.70;;;;;;;;;;5086042;28;20048;-67
2023/09/15 06:51:24;;;;;;;20.95;8.77;;;;;;;;;;5083501;28;20497;-66
2023/09/15 06:53:52;;;;;;;19.00;8.77;;;;;;;;;;5095469;28;20048;-67
2023/09/15 06:56:21;;;;;;;18.60;7.85;;;;;;;;;;5091806;28;20622;-67
2023/09/15 06:58:50;;;;;;;17.05;7.45;;;;;;;;;;5093987;28;20040;-67
2023/09/15 07:01:19;;;;;;;16.13;7.63;;;;;;;;;;5090591;28;20101;-67
2023/09/15 07:03:47;;;;;;;15.50;7.45;;;;;;;;;;5089075;28;20126;-67
2023/09/15 07:06:16;;;;;;;16.33;7.80;;;;;;;;;;5093260;28;20322;-67
2023/09/15 07:08:44;;;;;;;16.23;7.57;;;;;;;;;;5090696;28;20378;-68
2023/09/15 07:11:13;;;;;;;17.08;7.50;;;;;;;;;;5085637;28;20153;-68
2023/09/15 07:13:41;;;;;;;16.85;7.85;;;;;;;;;;5098882;28;20086;-67
2023/09/15 07:16:11;;;;;;;16.25;7.68;;;;;;;;;;5090590;28;20097;-67
2023/09/15 07:18:39;;;;;;;15.55;7.05;;;;;;;;;;5093843;28;20054;-67
2023/09/15 07:21:08;;;;;;;14.68;6.85;;;;;;;;;;5097848;28;20048;-67
2023/09/15 07:23:36;;;;;;;17.67;7.30;;;;;;;;;;5093257;28;20055;-68
2023/09/15 07:26:05;;;;;;;16.08;7.53;;;;;;;;;;5087353;28;20178;-67
2023/09/15 07:28:33;;;;;;;18.20;7.47;;;;;;;;;;5104074;28;20110;-67
2023/09/15 07:31:06;;;;;;;14.88;6.78;;;;;;;;;;5094342;28;20495;-67
2023/09/15 07:33:36;;;;;;;12.40;7.03;;;;;;;;;;5083911;28;20056;-67
2023/09/15 07:36:06;;;;;;;16.15;7.45;;;;;;;;;;5080856;28;20055;-67
2023/09/15 07:38:34;;;;;;;13.27;6.78;;;;;;;;;;5086973;28;20052;-67
2023/09/15 07:41:03;;;;;;;13.93;7.30;;;;;;;;;;5092804;28;20459;-66
2023/09/15 07:43:31;;;;;;;16.48;6.80;;;;;;;;;;5087327;28;20059;-66
2023/09/15 07:46:00;;;;;;;14.82;6.72;;;;;;;;;;5088073;28;20074;-66
2023/09/15 07:48:29;;;;;;;14.57;6.93;;;;;;;;;;5102231;28;20044;-66
2023/09/15 07:50:59;;;;;;;16.52;7.13;;;;;;;;;;5077572;28;20052;-66
2023/09/15 07:53:27;;;;;;;14.15;6.53;;;;;;;;;;5093262;28;20059;-66
2023/09/15 07:55:56;;;;;;;14.90;6.82;;;;;;;;;;5085698;28;20044;-66
2023/09/15 07:58:24;;;;;;;13.10;6.18;;;;;;;;;;5081204;28;20338;-66
2023/09/15 08:00:53;;;;;;;13.48;6.88;;;;;;;;;;5098523;28;20565;-66
2023/09/15 08:03:22;;;;;;;12.50;5.85;;;;;;;;;;5101233;28;20096;-66
2023/09/15 08:05:50;;;;;;;16.90;6.88;;;;;;;;;;5093449;28;20069;-66
2023/09/15 08:08:20;;;;;;;11.15;6.25;;;;;;;;;;5103239;28;20075;-66
2023/09/15 08:10:48;;;;;;;11.20;6.20;;;;;;;;;;5109121;28;20393;-66
2023/09/15 08:13:17;;;;;;;13.75;6.28;;;;;;;;;;5103480;28;20343;-66
2023/09/15 08:15:45;;;;;;;17.42;6.43;;;;;;;;;;5087232;28;20493;-66
2023/09/15 08:18:14;;;;;;;13.73;6.60;;;;;;;;;;5090228;28;20032;-67
2023/09/15 08:20:42;;;;;;;14.77;7.50;;;;;;;;;;5108802;28;20075;-66
2023/09/15 08:23:12;;;;;;;15.63;7.40;;;;;;;;;;5092084;28;20050;-66
2023/09/15 08:25:42;;;;;;;12.43;6.72;;;;;;;;;;5088258;28;20097;-66
2023/09/15 08:28:11;;;;;;;13.82;6.55;;;;;;;;;;5103497;28;20079;-66
2023/09/15 08:30:39;;;;;;;13.32;6.63;;;;;;;;;;5077512;28;20052;-67
2023/09/15 08:33:09;;;;;;;13.52;6.97;;;;;;;;;;5086854;28;20451;-67
2023/09/15 08:35:38;;;;;;;19.35;7.43;;;;;;;;;;5096654;28;20123;-67
2023/09/15 08:38:07;;;;;;;11.95;6.07;;;;;;;;;;5091520;28;20079;-67
2023/09/15 08:40:43;;;;;;;11.90;6.90;;;;;;;;;;5089232;28;20076;-66
2023/09/15 08:43:13;;;;;;;10.40;5.97;;;;;;;;;;5109212;28;20124;-67
2023/09/15 08:45:43;;;;;;;12.48;7.03;;;;;;;;;;5090803;28;20062;-67
2023/09/15 08:48:12;;;;;;;16.65;6.63;;;;;;;;;;5091122;28;20047;-67
2023/09/15 08:50:40;;;;;;;10.35;5.97;;;;;;;;;;5098348;28;20102;-67
2023/09/15 08:53:09;;;;;;;13.63;7.25;;;;;;;;;;5087012;28;20211;-67
2023/09/15 08:55:38;;;;;;;11.90;5.82;;;;;;;;;;5081012;28;20044;-67
2023/09/15 08:58:07;;;;;;;11.85;6.50;;;;;;;;;;5080069;28;20044;-67
2023/09/15 09:00:38;;;;;;;11.23;6.88;;;;;;;;;;5074567;28;20514;-68
2023/09/15 09:03:06;;;;;;;14.23;6.43;;;;;;;;;;5077481;28;20063;-68
2023/09/15 09:05:36;;;;;;;13.18;6.53;;;;;;;;;;5078620;28;20050;-67
2023/09/15 09:08:05;;;;;;;11.70;6.63;;;;;;;;;;5081449;28;20159;-68
2023/09/15 09:10:34;;;;;;;12.90;7.13;;;;;;;;;;5086397;28;20040;-67
2023/09/15 09:13:02;;;;;;;10.55;5.72;;;;;;;;;;5097242;28;20100;-68
2023/09/15 09:15:33;;;;;;;16.45;6.78;;;;;;;;;;5080831;28;20056;-68
2023/09/15 09:18:03;;;;;;;10.35;6.75;;;;;;;;;;5082965;28;20056;-67
2023/09/15 09:20:31;;;;;;;10.98;6.22;;;;;;;;;;5072816;28;20109;-66
2023/09/15 09:23:00;;;;;;;13.27;6.70;;;;;;;;;;5083502;28;20052;-68
2023/09/15 09:25:29;;;;;;;10.88;5.60;;;;;;;;;;5084559;28;20504;-68
2023/09/15 09:27:58;;;;;;;9.98;6.22;;;;;;;;;;5085812;28;20051;-67
2023/09/15 09:30:29;;;;;;;8.20;5.40;;;;;;;;;;5098070;28;20059;-67
2023/09/15 09:32:57;;;;;;;10.07;6.65;;;;;;;;;;5078087;28;20053;-67
2023/09/15 09:35:27;;;;;;;13.57;7.10;;;;;;;;;;5074787;28;20820;-68
2023/09/15 09:37:56;;;;;;;10.23;5.93;;;;;;;;;;5076920;28;20048;-67
2023/09/15 09:40:25;;;;;;;11.75;6.85;;;;;;;;;;5101401;28;20075;-67
2023/09/15 09:42:54;;;;;;;11.70;5.90;;;;;;;;;;5080050;28;20053;-67
2023/09/15 09:45:26;;;;;;;9.95;5.30;;;;;;;;;;5089126;28;20089;-67
2023/09/15 09:47:55;;;;;;;8.40;5.03;;;;;;;;;;5077782;28;20409;-67
2023/09/15 09:50:24;;;;;;;10.68;6.00;;;;;;;;;;5086340;28;20437;-67
2023/09/15 09:52:54;;;;;;;9.70;5.35;;;;;;;;;;5085144;28;20044;-68
2023/09/15 09:55:25;;;;;;;12.07;6.63;;;;;;;;;;5092606;28;20047;-67
2023/09/15 09:57:54;;;;;;;8.85;5.22;;;;;;;;;;5086378;28;20047;-67
2023/09/15 10:00:22;;;;;;;11.63;5.40;;;;;;;;;;5087570;28;20071;-68
2023/09/15 10:02:51;;;;;;;15.00;6.82;;;;;;;;;;5074857;28;20056;-67
2023/09/15 10:05:20;;;;;;;10.63;6.68;;;;;;;;;;5081306;28;20416;-68
2023/09/15 10:07:48;;;;;;;11.68;6.80;;;;;;;;;;5080903;28;20040;-67
2023/09/15 10:10:19;;;;;;;11.05;6.05;;;;;;;;;;5091737;28;20470;-67
2023/09/15 10:12:47;;;;;;;11.18;6.55;;;;;;;;;;5093337;28;20084;-68
2023/09/15 10:15:16;;;;;;;10.27;6.30;;;;;;;;;;5076987;28;21024;-66
2023/09/15 10:17:45;;;;;;;11.48;6.70;;;;;;;;;;5082007;28;20479;-68
2023/09/15 10:20:13;;;;;;;13.02;7.72;;;;;;;;;;5109258;28;20049;-68
2023/09/15 10:22:42;;;;;;;12.70;6.78;;;;;;;;;;5088863;28;20100;-67
2023/09/15 10:25:16;;;;;;;14.68;7.85;;;;;;;;;;5091459;28;20059;-68
2023/09/15 10:27:47;;;;;;;9.68;6.22;;;;;;;;;;5094257;28;20043;-66
2023/09/15 10:30:15;;;;;;;10.13;6.18;;;;;;;;;;5083863;28;20048;-66
2023/09/15 10:32:45;;;;;;;10.23;5.32;;;;;;;;;;5081435;28;20047;-66
2023/09/15 10:35:14;;;;;;;9.82;6.38;;;;;;;;;;5092919;28;20746;-66
2023/09/15 10:37:43;;;;;;;10.70;6.40;;;;;;;;;;5080713;28;20075;-66
2023/09/15 10:40:12;;;;;;;14.52;7.72;;;;;;;;;;5096136;28;20078;-66
2023/09/15 10:42:52;;;;;;;11.93;7.10;;;;;;;;;;5089235;28;20051;-67
2023/09/15 10:45:21;;;;;;;13.35;6.55;;;;;;;;;;5082315;28;20101;-67
2023/09/15 10:47:58;;;;;;;11.57;6.47;;;;;;;;;;5094535;28;20051;-67
2023/09/15 10:50:33;;;;;;;11.57;6.45;;;;;;;;;;5100447;28;20052;-68
2023/09/15 10:53:09;;;;;;;13.13;6.97;;;;;;;;;;5086327;28;20075;-66
2023/09/15 10:55:38;;;;;;;11.75;6.90;;;;;;;;;;5078190;28;20098;-69
2023/09/15 10:58:08;;;;;;;11.07;6.32;;;;;;;;;;5094130;28;20648;-66
2023/09/15 11:00:37;;;;;;;8.48;5.85;;;;;;;;;;5085802;28;20390;-66
2023/09/15 11:03:05;;;;;;;10.75;6.38;;;;;;;;;;5076093;28;20060;-66
2023/09/15 11:05:34;;;;;;;10.45;6.18;;;;;;;;;;5077749;28;20048;-68
2023/09/15 11:08:02;;;;;;;10.02;6.40;;;;;;;;;;5090519;28;20043;-67
2023/09/15 11:10:32;;;;;;;10.90;6.50;;;;;;;;;;5110372;28;20101;-67
2023/09/15 11:13:01;;;;;;;8.98;6.10;;;;;;;;;;5088769;28;20048;-67
2023/09/15 11:15:33;;;;;;;8.90;6.10;;;;;;;;;;5088853;28;20488;-66
2023/09/15 11:18:01;;;;;;;8.80;5.85;;;;;;;;;;5093284;28;20050;-67
2023/09/15 11:20:30;;;;;;;9.50;5.57;;;;;;;;;;5086926;28;20051;-67
2023/09/15 11:22:58;;;;;;;7.93;4.88;;;;;;;;;;5083588;28;20105;-67
2023/09/15 11:25:27;;;;;;;8.50;4.97;;;;;;;;;;5084889;28;20480;-66
2023/09/15 11:27:55;;;;;;;8.25;4.85;;;;;;;;;;5085074;28;20102;-67
2023/09/15 11:30:27;;;;;;;10.18;5.28;;;;;;;;;;5082050;28;20071;-67
2023/09/15 11:32:59;;;;;;;5.95;4.18;;;;;;;;;;5102545;28;20044;-67
2023/09/15 11:35:28;;;;;;;6.22;4.40;;;;;;;;;;5073963;28;20052;-67
2023/09/15 11:37:57;;;;;;;6.82;5.03;;;;;;;;;;5078393;28;20130;-67
2023/09/15 11:40:25;;;;;;;6.20;4.38;;;;;;;;;;5072859;28;20048;-67
2023/09/15 11:42:54;;;;;;;6.55;4.75;;;;;;;;;;5087697;28;20067;-67
2023/09/15 11:45:25;;;;;;;6.35;4.30;;;;;;;;;;5077115;28;20469;-67
2023/09/15 11:47:55;;;;;;;6.10;4.10;;;;;;;;;;5086707;28;20068;-67
2023/09/15 11:50:25;;;;;;;7.45;3.92;;;;;;;;;;5084575;28;20462;-68
2023/09/15 11:52:54;;;;;;;7.22;3.88;;;;;;;;;;5084159;28;20121;-66
2023/09/15 11:55:22;;;;;;;4.72;3.45;;;;;;;;;;5086486;28;20557;-68
2023/09/15 11:57:51;;;;;;;5.60;3.78;;;;;;;;;;5092828;28;20114;-67
2023/09/15 12:00:21;;;;;;;6.72;3.58;;;;;;;;;;5075925;28;20048;-66
2023/09/15 12:02:50;;;;;;;4.78;3.28;;;;;;;;;;5078826;28;20047;-66
2023/09/15 12:05:20;;;;;;;5.32;3.60;;;;;;;;;;5081963;28;20044;-68
2023/09/15 12:07:50;;;;;;;6.05;3.67;;;;;;;;;;5083258;28;20051;-66
2023/09/15 12:10:19;;;;;;;4.53;3.25;;;;;;;;;;5083550;28;20054;-68
2023/09/15 12:12:48;;;;;;;6.32;3.08;;;;;;;;;;5081962;28;20355;-67
2023/09/15 12:15:16;;;;;;;4.20;3.00;;;;;;;;;;5075804;28;20071;-67
2023/09/15 12:17:45;;;;;;;4.18;2.80;;;;;;;;;;5084692;28;20135;-67
2023/09/15 12:20:14;;;;;;;8.00;2.55;;;;;;;;;;5079523;28;20060;-67
2023/09/15 12:22:43;;;;;;;4.60;3.30;;;;;;;;;;5069695;28;20044;-67
2023/09/15 12:25:16;;;;;;;4.85;3.33;;;;;;;;;;5083983;28;20046;-67
2023/09/15 12:27:46;;;;;;;7.68;3.00;;;;;;;;;;5084766;28;20048;-67
2023/09/15 12:30:16;;;;;;;3.75;3.03;;;;;;;;;;5077809;28;20079;-67
2023/09/15 12:32:46;;;;;;;4.65;2.80;;;;;;;;;;5077830;28;20048;-67
2023/09/15 12:35:16;;;;;;;4.03;2.85;;;;;;;;;;5073067;28;20051;-67
2023/09/15 12:37:45;;;;;;;3.88;2.88;;;;;;;;;;5081955;28;20056;-69
2023/09/15 12:40:16;;;;;;;4.75;2.60;;;;;;;;;;5087086;28;20516;-68
2023/09/15 12:42:45;;;;;;;6.40;2.90;;;;;;;;;;5087605;28;20619;-67
2023/09/15 12:45:15;;;;;;;4.53;2.80;;;;;;;;;;5090529;28;20058;-68
2023/09/15 12:47:43;;;;;;;3.80;2.58;;;;;;;;;;5096004;28;20515;-67
2023/09/15 12:50:11;;;;;;;4.78;2.28;;;;;;;;;;5100660;28;20043;-67
2023/09/15 12:52:41;;;;;;;3.00;2.30;;;;;;;;;;5092562;28;21179;-67
2023/09/15 12:55:09;;;;;;;4.97;2.80;;;;;;;;;;5086650;28;20106;-67
2023/09/15 12:57:39;;;;;;;5.35;2.70;;;;;;;;;;5073689;28;20068;-68
2023/09/15 13:00:08;;;;;;;4.25;2.67;;;;;;;;;;5083342;28;20093;-67
2023/09/15 13:02:37;;;;;;;3.35;2.72;;;;;;;;;;5093756;28;20584;-68
2023/09/15 13:05:06;;;;;;;9.13;2.63;;;;;;;;;;5098968;28;20056;-67
2023/09/15 13:07:36;;;;;;;6.45;3.00;;;;;;;;;;5070137;28;20052;-67
2023/09/15 13:10:05;;;;;;;3.40;2.58;;;;;;;;;;5081764;28;20052;-67
2023/09/15 13:12:34;;;;;;;6.45;2.90;;;;;;;;;;5077816;28;20044;-69
2023/09/15 13:15:04;;;;;;;5.50;2.92;;;;;;;;;;5084874;28;20048;-67
2023/09/15 13:17:32;;;;;;;3.83;2.78;;;;;;;;;;5078628;28;20071;-67
2023/09/15 13:20:06;;;;;;;2.97;2.42;;;;;;;;;;5108005;28;20047;-68
2023/09/15 13:22:36;;;;;;;4.40;2.60;;;;;;;;;;5102061;28;20055;-67
2023/09/15 13:25:04;;;;;;;4.45;2.60;;;;;;;;;;5084792;28;20289;-67
2023/09/15 13:27:33;;;;;;;3.42;2.78;;;;;;;;;;5085568;28;20105;-67
2023/09/15 13:30:02;;;;;;;3.88;3.00;;;;;;;;;;5093781;28;20044;-68
2023/09/15 13:32:31;;;;;;;7.05;2.80;;;;;;;;;;5102759;28;20552;-67
2023/09/15 13:35:00;;;;;;;7.85;2.85;;;;;;;;;;5082189;28;20048;-68
2023/09/15 13:37:29;;;;;;;5.05;2.50;;;;;;;;;;5074367;28;20110;-68
2023/09/15 13:39:57;;;;;;;4.25;3.00;;;;;;;;;;5082194;28;20040;-68
2023/09/15 13:42:31;;;;;;;7.32;3.22;;;;;;;;;;5087152;28;20089;-68
2023/09/15 13:45:00;;;;;;;4.80;2.53;;;;;;;;;;5078493;28;20052;-68
2023/09/15 13:47:32;;;;;;;5.13;2.78;;;;;;;;;;5090332;28;20048;-67
2023/09/15 13:50:02;;;;;;;3.92;3.10;;;;;;;;;;5090730;28;20714;-68
2023/09/15 13:52:31;;;;;;;4.68;2.95;;;;;;;;;;5091026;28;20484;-68
2023/09/15 13:55:00;;;;;;;3.50;2.30;;;;;;;;;;5094683;28;20047;-68
2023/09/15 13:57:28;;;;;;;2.97;2.25;;;;;;;;;;5081269;28;20044;-68
2023/09/15 13:59:57;;;;;;;3.92;3.10;;;;;;;;;;5086646;28;20097;-68
2023/09/15 14:02:26;;;;;;;3.05;2.53;;;;;;;;;;5085856;28;20051;-68
2023/09/15 14:04:55;;;;;;;3.47;2.47;;;;;;;;;;5084719;28;20044;-68
2023/09/15 14:07:25;;;;;;;3.45;2.63;;;;;;;;;;5084775;28;20048;-67
2023/09/15 14:09:54;;;;;;;5.97;2.65;;;;;;;;;;5077600;28;20048;-68
2023/09/15 14:12:22;;;;;;;3.28;2.47;;;;;;;;;;5090900;28;20071;-68
2023/09/15 14:14:50;;;;;;;4.28;2.58;;;;;;;;;;5083446;28;20388;-68
2023/09/15 14:17:19;;;;;;;4.07;2.50;;;;;;;;;;5089119;28;20048;-68
2023/09/15 14:19:48;;;;;;;4.18;2.88;;;;;;;;;;5071931;28;20055;-68
2023/09/15 14:22:17;;;;;;;6.70;2.72;;;;;;;;;;5084908;28;20366;-67
2023/09/15 14:24:47;;;;;;;3.80;2.45;;;;;;;;;;5080738;28;20051;-67
2023/09/15 14:27:16;;;;;;;2.90;2.40;;;;;;;;;;5088858;28;20055;-66
2023/09/15 14:29:44;;;;;;;3.25;2.35;;;;;;;;;;5076378;28;20044;-66
2023/09/15 14:32:13;;;;;;;4.78;2.30;;;;;;;;;;5080573;28;20472;-66
2023/09/15 14:34:42;;;;;;;2.92;2.30;;;;;;;;;;5097744;28;20036;-67
2023/09/15 14:37:11;;;;;;;6.22;2.95;;;;;;;;;;5081911;28;20063;-67
2023/09/15 14:39:40;;;;;;;4.20;2.30;;;;;;;;;;5083142;28;20101;-66
2023/09/15 14:42:11;;;;;;;3.50;2.50;;;;;;;;;;5078348;28;20051;-68
2023/09/15 14:44:39;;;;;;;9.65;2.38;;;;;;;;;;5090471;28;20124;-67
2023/09/15 14:47:08;;;;;;;3.83;2.20;;;;;;;;;;5094940;28;20597;-69